Time;durP1;ratioP1;P1;durP2;ratioP2;P2;SDS_P1;SDS_P2;PMS_P1;PMS_P2;Temp;Humidity;BMP_temperature;BMP_pressure;BME280_temperature;BME280_humidity;BME280_pressure;Samples;Min_cycle;Max_cycle;Signal;HPM_P1;HPM_P2
2022/06/22 00:02:21;;;;;;;3.47;2.20;;;;;;;15.81;100.00;99112.72;5108534;27;20234;-80
2022/06/22 00:04:58;;;;;;;2.87;2.20;;;;;;;15.84;100.00;99114.91;5107528;28;20294;-80
2022/06/22 00:07:29;;;;;;;4.47;2.60;;;;;;;15.85;100.00;99111.13;5116195;27;20656;-81
2022/06/22 00:10:13;;;;;;;3.20;2.60;;;;;;;15.79;100.00;99105.97;5096740;28;20314;-80
2022/06/22 00:12:40;;;;;;;2.93;2.27;;;;;;;15.78;100.00;99107.03;5090380;28;20289;-79
2022/06/22 00:15:21;;;;;;;3.43;2.30;;;;;;;15.79;100.00;99114.06;5123651;27;20218;-81
2022/06/22 00:17:48;;;;;;;2.80;2.20;;;;;;;15.76;100.00;99106.50;5100817;27;20222;-80
2022/06/22 00:20:18;;;;;;;2.87;2.40;;;;;;;15.81;100.00;99111.91;5118652;27;20250;-80
2022/06/22 00:23:08;;;;;;;2.37;2.20;;;;;;;15.80;100.00;99113.81;5121334;27;20231;-80
2022/06/22 00:25:38;;;;;;;3.13;2.37;;;;;;;15.88;100.00;99114.34;5101800;27;20259;-80
2022/06/22 00:28:24;;;;;;;3.70;2.70;;;;;;;15.68;100.00;99101.59;5120717;27;20683;-80
2022/06/22 00:31:03;;;;;;;3.73;2.30;;;;;;;15.61;100.00;99098.34;5108359;28;20760;-82
2022/06/22 00:33:29;;;;;;;3.23;2.37;;;;;;;15.58;100.00;99093.47;5104800;28;20688;-78
2022/06/22 00:36:12;;;;;;;2.60;2.40;;;;;;;15.61;100.00;99092.94;5113778;27;20237;-80
2022/06/22 00:38:39;;;;;;;2.73;2.40;;;;;;;15.61;100.00;99091.06;5106367;27;20224;-83
2022/06/22 00:41:24;;;;;;;3.67;2.37;;;;;;;15.61;100.00;99082.16;5105311;27;20231;-81
2022/06/22 00:43:52;;;;;;;2.77;2.50;;;;;;;15.63;100.00;99080.00;5099606;27;20226;-81
2022/06/22 00:46:21;;;;;;;2.87;2.20;;;;;;;15.65;100.00;99080.53;5095014;28;20775;-81
2022/06/22 00:48:51;;;;;;;3.80;2.63;;;;;;;15.64;100.00;99074.31;5093530;28;20235;-81
2022/06/22 00:51:22;;;;;;;4.03;2.60;;;;;;;15.70;100.00;99075.16;5086856;28;20238;-80
2022/06/22 00:53:59;;;;;;;2.50;2.30;;;;;;;15.74;100.00;99079.75;5109286;28;20767;-81
2022/06/22 00:56:40;;;;;;;3.83;2.20;;;;;;;15.72;100.00;99064.91;5067154;28;20227;-80
2022/06/22 00:59:25;;;;;;;3.63;2.47;;;;;;;15.71;100.00;99066.78;5108571;28;20239;-82
2022/06/22 01:02:03;;;;;;;2.40;2.20;;;;;;;15.71;100.00;99079.47;5091537;28;20235;-82
2022/06/22 01:05:03;;;;;;;3.37;2.70;;;;;;;15.68;100.00;99072.69;5103356;28;20683;-81
2022/06/22 01:07:44;;;;;;;2.87;2.40;;;;;;;15.68;100.00;99075.41;5065483;27;20224;-81
2022/06/22 01:10:25;;;;;;;3.10;2.43;;;;;;;15.68;100.00;99075.41;5091787;28;20243;-81
2022/06/22 01:12:57;;;;;;;2.30;2.20;;;;;;;15.72;100.00;99084.59;5104486;28;20234;-82
2022/06/22 01:15:36;;;;;;;2.47;2.27;;;;;;;15.76;100.00;99076.78;5096871;28;20275;-81
2022/06/22 01:18:13;;;;;;;4.10;2.40;;;;;;;15.79;100.00;99076.25;5097835;28;20250;-82
2022/06/22 01:21:08;;;;;;;2.30;2.10;;;;;;;15.84;100.00;99076.25;5101916;28;20219;-81
2022/06/22 01:23:56;;;;;;;2.97;2.13;;;;;;;15.85;100.00;99080.59;5106277;28;20285;-81
2022/06/22 01:27:11;;;;;;;2.50;2.30;;;;;;;15.88;100.00;99076.53;5109266;28;20261;-82
2022/06/22 01:29:52;;;;;;;3.80;2.20;;;;;;;15.92;100.00;99083.03;5054625;28;20223;-81
2022/06/22 01:32:22;;;;;;;2.50;2.20;;;;;;;15.98;100.00;99088.19;5087493;28;20700;-81
2022/06/22 01:34:54;;;;;;;2.33;2.20;;;;;;;15.99;100.00;99087.09;5090800;28;20784;-81
2022/06/22 01:37:24;;;;;;;2.83;2.03;;;;;;;16.02;100.00;99088.44;5090238;28;20255;-82
2022/06/22 01:39:58;;;;;;;3.23;2.47;;;;;;;16.05;100.00;99090.63;5108700;28;20327;-82
2022/06/22 01:42:33;;;;;;;2.60;2.17;;;;;;;16.04;100.00;99087.13;5101476;28;20227;-84
2022/06/22 01:45:29;;;;;;;2.77;2.30;;;;;;;16.09;100.00;99094.41;5094013;27;20222;-81
2022/06/22 01:48:02;;;;;;;2.27;2.13;;;;;;;16.10;100.00;99102.25;5105153;28;20262;-81
2022/06/22 01:50:41;;;;;;;4.07;2.30;;;;;;;16.16;100.00;99109.28;5117557;27;20227;-81
2022/06/22 01:53:26;;;;;;;4.63;2.30;;;;;;;16.15;100.00;99107.66;5098389;27;20596;-82
2022/06/22 01:56:20;;;;;;;3.97;2.40;;;;;;;16.15;100.00;99112.25;5115736;27;20238;-80
2022/06/22 01:58:59;;;;;;;3.47;2.50;;;;;;;16.18;100.00;99119.84;5108986;27;20223;-82
2022/06/22 02:01:37;;;;;;;2.87;2.53;;;;;;;16.18;100.00;99125.25;5099469;27;20250;-82
2022/06/22 02:04:13;;;;;;;3.43;2.20;;;;;;;16.22;100.00;99123.63;5111605;28;20227;-80
2022/06/22 02:09:50;;;;;;;4.57;2.40;;;;;;;16.29;100.00;99126.84;5101836;27;20231;-81
2022/06/22 02:12:20;;;;;;;4.17;2.60;;;;;;;16.31;100.00;99124.72;5097683;27;20233;-82
2022/06/22 02:14:53;;;;;;;3.40;2.40;;;;;;;16.34;100.00;99128.75;5126234;27;20236;-81
2022/06/22 02:17:23;;;;;;;4.23;2.80;;;;;;;16.33;100.00;99122.53;5116557;27;20652;-80
2022/06/22 02:20:18;;;;;;;2.87;2.57;;;;;;;16.34;100.00;99131.44;5105136;27;20562;-82
2022/06/22 02:22:46;;;;;;;4.37;2.80;;;;;;;16.35;100.00;99141.19;5119693;27;20239;-81
2022/06/22 02:25:14;;;;;;;3.10;2.30;;;;;;;16.41;100.00;99148.25;5105460;27;20231;-82
2022/06/22 02:27:41;;;;;;;4.83;2.70;;;;;;;16.41;100.00;99137.44;5112132;27;20745;-82
2022/06/22 02:30:08;;;;;;;3.63;2.40;;;;;;;16.43;100.00;99136.06;5116915;27;20227;-82
2022/06/22 02:32:40;;;;;;;2.50;2.30;;;;;;;16.45;100.00;99131.22;5114678;27;20262;-82
2022/06/22 02:35:09;;;;;;;2.50;2.40;;;;;;;16.47;100.00;99134.44;5125517;27;20237;-82
2022/06/22 02:37:43;;;;;;;3.03;2.77;;;;;;;16.48;100.00;99127.97;5115050;27;20239;-82
2022/06/22 02:40:16;;;;;;;4.00;3.10;;;;;;;16.51;100.00;99123.91;5100913;27;20233;-82
2022/06/22 02:45:29;;;;;;;2.90;2.60;;;;;;;16.54;100.00;99112.56;5095905;28;20316;-81
2022/06/22 02:48:00;;;;;;;4.50;2.63;;;;;;;16.61;100.00;99116.63;5109821;27;20235;-82
2022/06/22 02:50:41;;;;;;;3.83;2.60;;;;;;;16.63;100.00;99119.06;5096030;28;20228;-81
2022/06/22 02:53:17;;;;;;;4.13;2.73;;;;;;;16.67;100.00;99115.56;5099355;28;20260;-82
2022/06/22 02:55:44;;;;;;;2.90;2.50;;;;;;;16.65;100.00;99114.22;5089988;27;20584;-80
2022/06/22 02:58:26;;;;;;;3.83;2.80;;;;;;;16.67;100.00;99110.13;5106978;27;20237;-82
2022/06/22 03:00:54;;;;;;;5.63;3.10;;;;;;;16.74;100.00;99107.16;5113493;27;20581;-81
2022/06/22 03:03:22;;;;;;;3.60;2.97;;;;;;;16.78;100.00;99102.03;5096390;28;20710;-82
2022/06/22 03:05:51;;;;;;;4.07;2.77;;;;;;;16.77;100.00;99103.91;5109288;27;20311;-81
2022/06/22 03:08:19;;;;;;;2.93;2.60;;;;;;;16.80;100.00;99105.28;5101013;27;20723;-82
2022/06/22 03:11:06;;;;;;;3.80;3.00;;;;;;;16.82;100.00;99100.38;5103655;27;20246;-82
2022/06/22 03:13:40;;;;;;;3.97;2.60;;;;;;;16.88;100.00;99102.81;5107711;27;20231;-81
2022/06/22 03:16:09;;;;;;;2.70;2.50;;;;;;;16.95;100.00;99092.53;5093856;28;20227;-82
2022/06/22 03:18:39;;;;;;;3.30;3.00;;;;;;;17.06;100.00;99098.72;5102817;27;20230;-82
2022/06/22 03:21:08;;;;;;;3.80;2.90;;;;;;;17.09;100.00;99093.56;5112375;28;20227;-80
2022/06/22 03:23:40;;;;;;;6.43;2.70;;;;;;;17.10;100.00;99103.31;5111568;27;20228;-82
2022/06/22 03:26:14;;;;;;;2.87;2.67;;;;;;;17.14;100.00;99098.16;5102150;28;20236;-81
2022/06/22 03:28:51;;;;;;;3.80;2.90;;;;;;;17.20;100.00;99102.47;5108923;28;20274;-82
2022/06/22 03:31:23;;;;;;;3.00;2.70;;;;;;;17.22;100.00;99105.69;5092792;28;20766;-82
2022/06/22 03:33:55;;;;;;;2.90;2.47;;;;;;;17.27;100.00;99097.56;5103678;28;20647;-82
2022/06/22 03:36:33;;;;;;;6.43;2.93;;;;;;;17.42;100.00;99102.13;5084359;28;20224;-82
2022/06/22 03:39:05;;;;;;;2.50;2.33;;;;;;;17.55;100.00;99096.91;5093817;28;20292;-82
2022/06/22 03:41:37;;;;;;;3.20;2.60;;;;;;;17.63;100.00;99105.59;5115906;27;20250;-82
2022/06/22 03:44:09;;;;;;;4.07;2.87;;;;;;;17.70;100.00;99114.22;5091233;28;20292;-81
2022/06/22 03:47:05;;;;;;;2.60;2.40;;;;;;;17.67;100.00;99123.72;5090981;28;20236;-82
2022/06/22 03:49:56;;;;;;;2.73;2.53;;;;;;;17.74;100.00;99121.50;5102416;27;20224;-83
2022/06/22 03:52:29;;;;;;;3.77;2.60;;;;;;;17.84;100.00;99121.47;5092378;28;20261;-82
2022/06/22 03:55:12;;;;;;;2.97;2.67;;;;;;;17.99;100.00;99115.97;5108550;28;20765;-81
2022/06/22 03:57:41;;;;;;;5.40;3.00;;;;;;;18.19;100.00;99108.81;5094714;28;20315;-81
2022/06/22 04:00:09;;;;;;;7.67;3.00;;;;;;;18.34;100.00;99114.91;5106849;27;20232;-82
2022/06/22 04:02:36;;;;;;;3.40;2.80;;;;;;;18.41;100.00;99114.59;5091988;28;20225;-81
2022/06/22 04:05:04;;;;;;;6.00;2.80;;;;;;;18.49;100.00;99130.25;5110252;27;20236;-83
2022/06/22 04:07:37;;;;;;;5.03;3.10;;;;;;;18.48;100.00;99145.72;5092310;28;20265;-81
2022/06/22 04:10:06;;;;;;;3.10;2.80;;;;;;;18.56;100.00;99147.06;5098391;28;20235;-81
2022/06/22 04:12:42;;;;;;;2.77;2.50;;;;;;;18.64;100.00;99151.88;5093421;28;20241;-82
2022/06/22 04:15:23;;;;;;;3.33;2.77;;;;;;;18.74;100.00;99145.56;5108854;28;20649;-81
2022/06/22 04:17:54;;;;;;;6.13;3.10;;;;;;;18.78;100.00;99139.28;5083792;27;20727;-81
2022/06/22 04:20:52;;;;;;;5.47;2.97;;;;;;;18.88;100.00;99141.09;5087116;28;20652;-82
2022/06/22 04:23:45;;;;;;;6.70;3.00;;;;;;;18.94;100.00;99144.59;5094813;27;20229;-81
2022/06/22 04:26:30;;;;;;;4.33;2.77;;;;;;;18.95;100.00;99146.19;5089660;27;20336;-82
2022/06/22 04:29:00;;;;;;;2.90;2.60;;;;;;;19.00;100.00;99143.41;5112999;27;20230;-82
2022/06/22 04:31:31;;;;;;;4.77;3.10;;;;;;;19.02;100.00;99139.34;5087591;28;20229;-82
2022/06/22 04:34:11;;;;;;;3.40;3.10;;;;;;;18.99;100.00;99137.19;5100200;27;20244;-82
2022/06/22 04:36:46;;;;;;;3.57;3.10;;;;;;;18.93;100.00;99135.63;5109829;27;20722;-82
2022/06/22 04:39:13;;;;;;;3.87;3.23;;;;;;;18.85;100.00;99145.19;5106595;28;20248;-82
2022/06/22 04:41:40;;;;;;;4.20;3.27;;;;;;;18.92;100.00;99151.09;5115002;27;20237;-82
2022/06/22 04:44:15;;;;;;;5.40;3.17;;;;;;;18.99;100.00;99145.31;5092644;28;20730;-82
2022/06/22 04:46:44;;;;;;;4.80;3.40;;;;;;;19.06;100.00;99148.53;5112035;27;20702;-81
2022/06/22 04:49:30;;;;;;;6.40;3.30;;;;;;;19.40;100.00;99155.78;5103618;27;20226;-82
2022/06/22 04:52:13;;;;;;;5.37;3.27;;;;;;;19.45;100.00;99156.59;5093868;28;20265;-83
2022/06/22 04:54:41;;;;;;;3.90;2.70;;;;;;;19.52;100.00;99148.06;5113747;27;20232;-82
2022/06/22 04:57:16;;;;;;;3.40;2.77;;;;;;;19.32;100.00;99160.75;5092963;28;20234;-81
2022/06/22 04:59:43;;;;;;;4.40;2.80;;;;;;;19.34;100.00;99150.41;5120552;28;20233;-81
2022/06/22 05:02:11;;;;;;;5.87;2.93;;;;;;;19.44;100.00;99152.25;5115878;27;20236;-82
2022/06/22 05:04:44;;;;;;;2.83;2.43;;;;;;;19.49;100.00;99148.66;5101562;28;20233;-82
2022/06/22 05:07:38;;;;;;;5.27;2.43;;;;;;;19.70;100.00;99142.69;5078098;28;20755;-82
2022/06/22 05:10:16;;;;;;;5.93;2.60;;;;;;;20.05;100.00;99146.03;5096300;28;20228;-82
2022/06/22 05:12:54;;;;;;;3.23;2.27;;;;;;;20.15;100.00;99146.72;5102452;28;20336;-82
2022/06/22 05:15:36;;;;;;;2.63;2.43;;;;;;;20.40;100.00;99145.53;5094335;28;20636;-82
2022/06/22 05:18:09;;;;;;;5.13;2.20;;;;;;;20.76;100.00;99148.53;5103255;28;20641;-82
2022/06/22 05:20:45;;;;;;;2.93;2.60;;;;;;;21.49;96.56;99151.31;5100192;28;20238;-83
2022/06/22 05:23:12;;;;;;;2.40;2.20;;;;;;;21.93;84.67;99155.34;5103169;27;20236;-83
2022/06/22 05:25:41;;;;;;;2.40;1.90;;;;;;;22.23;74.28;99138.31;5117968;27;20229;-83
2022/06/22 05:28:16;;;;;;;3.53;2.07;;;;;;;22.44;72.85;99146.03;5095700;28;20232;-82
2022/06/22 05:30:48;;;;;;;3.77;2.07;;;;;;;22.21;73.77;99135.06;5084360;28;20236;-83
2022/06/22 05:33:17;;;;;;;2.10;1.80;;;;;;;22.10;69.01;99132.88;5117169;27;20222;-82
2022/06/22 05:35:48;;;;;;;5.75;2.10;;;;;;;22.02;66.62;99125.44;5089355;28;20322;-81
2022/06/22 05:38:17;;;;;;;2.83;2.10;;;;;;;21.95;67.14;99115.75;5096996;28;20808;-84
2022/06/22 05:40:45;;;;;;;5.97;2.30;;;;;;;22.17;68.20;99123.16;5093309;28;20233;-83
2022/06/22 05:43:12;;;;;;;8.40;2.10;;;;;;;22.51;67.96;99125.38;5077871;27;20264;-83
2022/06/22 05:45:43;;;;;;;3.80;1.90;;;;;;;22.82;69.05;99125.44;5100229;28;20313;-83
2022/06/22 05:48:15;;;;;;;2.83;1.85;;;;;;;23.14;65.12;99127.09;5117792;27;20241;-83
2022/06/22 05:50:47;;;;;;;5.50;1.93;;;;;;;23.23;62.30;99125.19;5113703;27;20646;-83
2022/06/22 05:53:22;;;;;;;3.73;1.90;;;;;;;23.22;58.75;99105.25;5108268;27;20237;-82
2022/06/22 05:55:55;;;;;;;1.83;1.60;;;;;;;23.13;54.50;99103.63;5086985;27;20632;-82
2022/06/22 05:58:25;;;;;;;2.88;1.58;;;;;;;23.13;54.64;99093.50;5125658;27;20278;-82
2022/06/22 06:00:53;;;;;;;4.53;1.58;;;;;;;22.92;54.40;99097.88;5098122;28;20227;-82
2022/06/22 06:03:35;;;;;;;2.65;1.63;;;;;;;23.04;54.25;99110.97;5095081;27;20222;-85
2022/06/22 06:06:14;;;;;;;2.33;1.42;;;;;;;23.04;54.84;99109.03;5115821;27;20224;-81
2022/06/22 06:08:59;;;;;;;2.92;1.60;;;;;;;23.21;53.82;99111.84;5092831;28;20227;-83
2022/06/22 06:11:29;;;;;;;2.95;1.70;;;;;;;23.30;53.47;99111.06;5096258;28;20266;-83
2022/06/22 06:14:00;;;;;;;3.05;1.50;;;;;;;23.38;53.26;99107.56;5108875;28;20229;-83
2022/06/22 06:16:56;;;;;;;2.63;1.70;;;;;;;23.42;51.45;99111.28;5113659;27;20291;-82
2022/06/22 06:19:28;;;;;;;2.33;1.40;;;;;;;23.46;51.08;99107.63;5114931;27;20229;-82
2022/06/22 06:21:58;;;;;;;2.65;1.55;;;;;;;23.46;50.34;99118.56;5115245;27;20311;-83
2022/06/22 06:24:31;;;;;;;4.13;2.10;;;;;;;23.61;50.03;99129.06;5078295;28;20292;-82
2022/06/22 06:29:53;;;;;;;3.25;1.63;;;;;;;23.94;49.77;99129.47;5097901;27;20834;-81
2022/06/22 06:32:28;;;;;;;1.65;1.48;;;;;;;24.22;46.84;99123.72;5094139;27;20287;-82
2022/06/22 06:35:00;;;;;;;3.50;1.55;;;;;;;24.52;45.94;99133.72;5104221;27;20235;-82
2022/06/22 06:38:17;;;;;;;2.13;1.58;;;;;;;25.33;44.94;99140.03;5112885;27;20228;-82
2022/06/22 06:40:49;;;;;;;1.70;1.60;;;;;;;26.02;41.18;99139.69;5031303;28;20258;-83
2022/06/22 06:43:47;;;;;;;2.92;1.60;;;;;;;27.06;39.26;99145.94;5098629;28;20222;-82
2022/06/22 06:46:29;;;;;;;3.45;1.75;;;;;;;27.50;38.20;99146.28;5110552;27;20239;-82
2022/06/22 06:49:11;;;;;;;1.52;1.40;;;;;;;27.28;38.14;99139.25;5069847;28;20241;-82
2022/06/22 06:51:40;;;;;;;3.65;1.60;;;;;;;27.15;38.23;99134.88;5066891;28;20232;-83
2022/06/22 06:54:28;;;;;;;1.52;1.40;;;;;;;27.18;39.03;99134.19;5069317;28;20222;-82
2022/06/22 06:57:02;;;;;;;2.80;1.40;;;;;;;27.34;37.72;99134.31;5074750;28;20300;-82
2022/06/22 06:59:30;;;;;;;1.75;1.40;;;;;;;27.47;38.40;99133.19;5076424;28;20248;-82
2022/06/22 07:02:05;;;;;;;3.67;1.58;;;;;;;27.56;37.81;99123.72;5093060;28;20225;-83
2022/06/22 07:04:34;;;;;;;1.77;1.63;;;;;;;27.07;37.85;99111.81;5075667;28;20216;-83
2022/06/22 07:07:04;;;;;;;1.92;1.50;;;;;;;27.31;37.12;99111.03;5069932;28;20311;-83
2022/06/22 07:09:35;;;;;;;2.67;1.50;;;;;;;27.23;36.78;99103.72;5071956;28;20299;-82
2022/06/22 07:12:08;;;;;;;1.98;1.50;;;;;;;27.26;36.89;99114.03;5067591;28;20228;-82
2022/06/22 07:14:38;;;;;;;5.00;1.70;;;;;;;27.59;37.15;99108.44;5071686;28;20229;-83
2022/06/22 07:17:11;;;;;;;2.30;1.50;;;;;;;27.61;36.46;99110.88;5067905;28;20328;-83
2022/06/22 07:19:42;;;;;;;1.83;1.27;;;;;;;27.57;36.41;99108.00;5053119;28;20272;-83
2022/06/22 07:22:20;;;;;;;1.90;1.40;;;;;;;27.75;34.83;99105.81;5072502;28;20814;-83
2022/06/22 07:25:12;;;;;;;1.92;1.30;;;;;;;27.37;34.60;99106.13;5065848;28;20286;-83
2022/06/22 07:27:53;;;;;;;1.92;1.15;;;;;;;27.20;35.80;99092.59;5062035;28;20231;-83
2022/06/22 07:30:25;;;;;;;2.05;1.23;;;;;;;27.15;36.34;99094.44;5051996;28;20245;-82
2022/06/22 07:33:14;;;;;;;2.35;1.30;;;;;;;27.26;35.84;99080.22;5060904;28;20241;-82
2022/06/22 07:35:49;;;;;;;4.15;1.10;;;;;;;27.34;34.81;99082.06;5052960;28;20241;-82
2022/06/22 07:38:45;;;;;;;1.73;1.30;;;;;;;27.19;34.74;99083.53;5065353;28;20227;-82
2022/06/22 07:41:20;;;;;;;1.98;0.98;;;;;;;27.05;36.57;99083.06;5067942;28;20243;-82
2022/06/22 07:43:59;;;;;;;2.50;1.30;;;;;;;26.87;37.40;99081.66;5062110;28;20228;-83
2022/06/22 07:46:34;;;;;;;3.67;1.23;;;;;;;27.01;37.74;99082.16;5061046;28;20691;-83
2022/06/22 07:49:18;;;;;;;3.00;1.27;;;;;;;27.21;36.43;99088.69;5069377;28;20708;-83
2022/06/22 07:51:54;;;;;;;2.80;1.30;;;;;;;26.98;36.09;99082.81;5067432;28;20270;-83
2022/06/22 07:54:27;;;;;;;1.83;1.17;;;;;;;26.86;35.26;99066.31;5066775;28;20233;-83
2022/06/22 07:57:01;;;;;;;2.33;1.45;;;;;;;26.88;35.86;99069.50;5065709;28;20226;-82
2022/06/22 07:59:33;;;;;;;1.55;1.33;;;;;;;26.82;36.90;99063.41;5067309;28;20242;-82
2022/06/22 08:02:08;;;;;;;1.88;1.20;;;;;;;26.79;36.12;99061.31;5080820;28;20724;-82
2022/06/22 08:04:39;;;;;;;2.00;1.58;;;;;;;26.91;37.06;99058.66;5082772;28;20254;-82
2022/06/22 08:07:08;;;;;;;1.55;1.30;;;;;;;26.99;36.12;99045.94;5046365;28;20252;-82
2022/06/22 08:09:51;;;;;;;1.95;1.40;;;;;;;26.92;36.86;99042.97;5046849;28;20683;-83
2022/06/22 08:12:24;;;;;;;1.27;1.23;;;;;;;27.02;38.39;99053.50;5060141;28;20641;-82
2022/06/22 08:14:53;;;;;;;1.77;1.30;;;;;;;26.92;37.07;99059.47;5069260;28;20267;-82
2022/06/22 08:17:42;;;;;;;1.85;1.30;;;;;;;26.89;36.71;99060.94;5066579;28;20235;-82
2022/06/22 08:20:11;;;;;;;1.35;1.23;;;;;;;26.70;36.22;99064.16;5063160;28;20602;-82
2022/06/22 08:22:40;;;;;;;3.75;1.40;;;;;;;26.84;35.62;99057.56;5064767;28;20315;-82
2022/06/22 08:25:07;;;;;;;5.95;1.50;;;;;;;26.85;36.00;99054.47;5068255;28;20597;-82
2022/06/22 08:27:34;;;;;;;2.53;1.17;;;;;;;27.22;34.91;99054.53;5067767;28;20324;-82
2022/06/22 08:30:00;;;;;;;3.10;1.40;;;;;;;27.38;34.18;99056.28;5063909;28;20731;-82
2022/06/22 08:32:31;;;;;;;4.43;1.30;;;;;;;27.65;33.16;99056.75;5073056;28;20276;-81
2022/06/22 08:35:06;;;;;;;2.20;1.23;;;;;;;27.79;34.00;99059.94;5063079;28;20320;-82
2022/06/22 08:37:39;;;;;;;1.20;1.10;;;;;;;27.94;32.94;99062.78;5061153;28;20227;-82
2022/06/22 08:40:17;;;;;;;2.67;1.40;;;;;;;27.79;32.73;99055.22;5049792;28;20233;-82
2022/06/22 08:42:53;;;;;;;1.40;1.20;;;;;;;27.81;33.53;99043.88;5064882;28;20293;-82
2022/06/22 08:45:19;;;;;;;1.60;1.38;;;;;;;27.86;34.21;99044.44;5073616;28;20235;-81
2022/06/22 08:48:18;;;;;;;1.30;1.17;;;;;;;28.03;34.04;99043.38;5077738;28;20315;-82
2022/06/22 08:51:13;;;;;;;1.73;1.40;;;;;;;28.27;33.32;99042.50;5084881;28;20243;-82
2022/06/22 08:54:10;;;;;;;2.58;1.40;;;;;;;28.72;32.48;99050.47;5082898;28;20233;-83
2022/06/22 08:57:03;;;;;;;3.22;1.40;;;;;;;28.85;32.24;99049.22;5057939;28;20220;-82
2022/06/22 08:59:59;;;;;;;1.85;1.30;;;;;;;29.43;31.85;99064.13;5083867;28;20221;-82
2022/06/22 09:02:34;;;;;;;2.58;1.30;;;;;;;29.97;30.45;99066.94;5077932;28;20289;-83
2022/06/22 09:05:30;;;;;;;1.52;1.20;;;;;;;30.61;29.44;99071.03;5089283;28;20253;-82
2022/06/22 09:08:28;;;;;;;1.55;1.15;;;;;;;30.31;29.39;99070.84;5083211;28;20224;-83
2022/06/22 09:11:16;;;;;;;2.45;1.20;;;;;;;30.18;29.30;99072.16;5070120;28;20318;-82
2022/06/22 09:13:59;;;;;;;1.02;1.00;;;;;;;30.73;29.67;99076.44;5091492;28;20448;-83
2022/06/22 09:16:48;;;;;;;1.65;1.30;;;;;;;31.49;28.29;99080.16;5073048;28;20726;-82
2022/06/22 09:19:41;;;;;;;1.85;1.20;;;;;;;32.02;27.68;99074.59;5087122;28;20223;-82
2022/06/22 09:22:15;;;;;;;2.50;1.60;;;;;;;31.84;27.26;99074.34;5086569;28;20232;-81
2022/06/22 09:24:58;;;;;;;2.13;1.50;;;;;;;31.92;27.83;99066.97;5069868;28;21274;-83
2022/06/22 09:27:35;;;;;;;2.20;1.40;;;;;;;31.71;26.82;99070.22;5071400;28;20318;-82
2022/06/22 09:30:23;;;;;;;2.28;1.40;;;;;;;31.82;27.67;99073.94;5081636;28;20232;-81
2022/06/22 09:33:10;;;;;;;1.48;1.38;;;;;;;32.17;27.32;99070.88;5091353;28;20250;-82
2022/06/22 09:35:59;;;;;;;1.70;1.25;;;;;;;31.99;27.51;99064.28;5086695;28;20590;-83
2022/06/22 09:38:38;;;;;;;2.58;1.50;;;;;;;31.58;28.15;99060.53;5083142;28;20232;-82
2022/06/22 09:41:11;;;;;;;1.60;1.30;;;;;;;30.68;29.06;99054.59;5081809;28;20235;-83
2022/06/22 09:43:46;;;;;;;3.63;1.70;;;;;;;30.32;30.09;99057.81;5083725;28;20274;-82
2022/06/22 09:46:38;;;;;;;3.20;1.40;;;;;;;29.95;30.50;99049.97;5086113;28;20238;-82
2022/06/22 09:49:30;;;;;;;3.50;1.52;;;;;;;29.32;30.83;99054.78;5084033;28;20278;-83
2022/06/22 09:52:11;;;;;;;2.15;1.40;;;;;;;29.06;31.85;99052.53;5085563;28;20648;-83
2022/06/22 09:57:47;;;;;;;2.42;1.55;;;;;;;28.71;32.95;99054.38;5091211;28;20219;-83
2022/06/22 10:00:31;;;;;;;3.40;1.60;;;;;;;28.55;33.04;99056.28;5083855;28;20234;-83
2022/06/22 10:03:20;;;;;;;2.58;1.60;;;;;;;28.58;33.54;99061.88;5094073;28;20229;-82
2022/06/22 10:06:15;;;;;;;2.20;1.50;;;;;;;28.62;33.22;99060.00;5089683;28;20241;-83
2022/06/22 10:08:57;;;;;;;3.35;1.85;;;;;;;28.63;33.71;99052.53;5081747;28;20236;-82
2022/06/22 10:11:45;;;;;;;2.17;1.73;;;;;;;28.69;33.07;99054.72;5091841;28;20235;-83
2022/06/22 10:14:34;;;;;;;2.55;1.60;;;;;;;28.72;32.76;99053.22;5086923;28;20224;-82
2022/06/22 10:17:32;;;;;;;1.88;1.50;;;;;;;28.88;33.46;99048.53;5084804;28;20598;-79
2022/06/22 10:20:40;;;;;;;1.58;1.48;;;;;;;28.96;32.86;99044.78;5084539;28;20231;-82
2022/06/22 10:23:16;;;;;;;1.80;1.40;;;;;;;28.83;33.13;99029.50;5086816;28;20295;-83
2022/06/22 10:26:05;;;;;;;1.70;1.60;;;;;;;28.97;33.63;99027.09;5071949;28;20236;-83
2022/06/22 10:28:56;;;;;;;2.88;1.60;;;;;;;29.04;34.19;99031.97;5092348;28;20775;-85
2022/06/22 10:31:28;;;;;;;1.58;1.48;;;;;;;29.13;35.91;99029.84;5089290;28;20309;-81
2022/06/22 10:34:19;;;;;;;3.20;1.77;;;;;;;29.17;34.18;99022.44;5096634;28;20642;-83
2022/06/22 10:37:29;;;;;;;1.90;1.80;;;;;;;29.04;33.29;99035.53;5087262;28;20723;-82
2022/06/22 10:46:02;;;;;;;1.88;1.58;;;;;;;29.39;35.76;99029.31;5074555;28;20298;-82
2022/06/22 10:48:38;;;;;;;3.65;1.50;;;;;;;29.39;32.55;99023.81;5085420;28;20274;-83
2022/06/22 10:51:42;;;;;;;1.75;1.55;;;;;;;29.65;32.36;99026.75;5092754;28;20232;-82
2022/06/22 10:54:27;;;;;;;2.08;1.85;;;;;;;29.56;32.63;99013.16;5083237;28;20237;-82
2022/06/22 10:57:07;;;;;;;1.83;1.50;;;;;;;29.61;32.52;99009.34;5093177;28;20235;-82
2022/06/22 10:59:47;;;;;;;1.85;1.75;;;;;;;29.84;33.52;99010.22;5070945;28;20243;-82
2022/06/22 11:02:51;;;;;;;3.08;1.92;;;;;;;29.96;33.09;99004.59;5085022;28;20219;-83
2022/06/22 11:05:50;;;;;;;1.75;1.65;;;;;;;30.26;33.53;99004.00;5094949;28;20705;-82
2022/06/22 11:08:42;;;;;;;3.83;1.80;;;;;;;30.27;32.94;98998.13;5089580;28;20688;-82
2022/06/22 11:11:24;;;;;;;3.45;1.80;;;;;;;30.51;32.55;98994.28;5096404;28;20236;-82
2022/06/22 11:14:18;;;;;;;3.90;1.80;;;;;;;30.78;32.07;98984.06;5089509;28;20695;-83
2022/06/22 11:17:20;;;;;;;4.55;2.20;;;;;;;30.77;32.29;98988.00;5087263;28;20248;-82
2022/06/22 11:20:12;;;;;;;2.30;1.80;;;;;;;30.79;32.52;98999.50;5092702;28;20324;-82
2022/06/22 11:22:46;;;;;;;2.13;1.95;;;;;;;30.94;31.36;98988.28;5092314;28;20228;-82
2022/06/22 11:31:42;;;;;;;3.72;1.95;;;;;;;32.29;29.91;98979.16;5104707;28;20247;-83
2022/06/22 11:34:29;;;;;;;2.78;1.80;;;;;;;32.07;30.24;98978.09;5084387;28;20240;-83
2022/06/22 11:37:08;;;;;;;2.65;2.00;;;;;;;32.01;30.93;98981.59;5104065;28;20277;-83
2022/06/22 11:40:06;;;;;;;4.43;1.90;;;;;;;32.15;30.34;98973.47;5088933;28;20327;-83
2022/06/22 11:43:00;;;;;;;3.90;1.90;;;;;;;32.20;30.32;98981.44;5065140;28;20236;-83
2022/06/22 11:45:51;;;;;;;2.10;1.77;;;;;;;32.51;29.69;98977.44;5093628;28;20745;-83
2022/06/22 11:48:42;;;;;;;4.32;1.95;;;;;;;32.47;30.41;98977.41;5092926;28;20232;-83
2022/06/22 11:51:23;;;;;;;1.83;1.70;;;;;;;32.79;29.79;98974.16;5068182;28;20589;-83
2022/06/22 11:53:52;;;;;;;2.10;1.90;;;;;;;33.03;30.09;98966.03;5078205;28;20236;-83
2022/06/22 11:56:46;;;;;;;3.25;1.98;;;;;;;33.06;30.04;98964.47;5073091;28;20730;-83
2022/06/22 11:59:25;;;;;;;1.98;1.70;;;;;;;32.93;29.96;98971.50;5095746;28;20250;-83
2022/06/22 12:02:10;;;;;;;2.70;1.80;;;;;;;32.78;29.69;98970.56;5097474;28;20239;-83
2022/06/22 12:04:40;;;;;;;4.85;1.73;;;;;;;32.77;29.44;98968.97;5061537;28;20224;-83
2022/06/22 12:07:41;;;;;;;2.45;1.70;;;;;;;33.08;28.71;98965.66;5084956;28;20316;-83
2022/06/22 12:10:24;;;;;;;2.33;1.80;;;;;;;33.43;28.34;98962.38;5085140;28;20278;-79
2022/06/22 12:13:06;;;;;;;1.63;1.52;;;;;;;33.58;28.25;98969.59;5070948;28;20236;-83
2022/06/22 12:15:32;;;;;;;3.80;1.83;;;;;;;33.83;27.27;98969.72;5069376;28;20954;-83
2022/06/22 12:18:30;;;;;;;4.32;1.73;;;;;;;33.97;27.23;98964.22;5076186;28;20307;-82
2022/06/22 12:21:21;;;;;;;2.35;1.58;;;;;;;34.44;26.99;98971.53;5084702;28;20228;-83
2022/06/22 12:23:48;;;;;;;2.50;1.65;;;;;;;34.35;26.80;98973.91;5080183;28;20244;-83
2022/06/22 12:26:42;;;;;;;2.95;1.60;;;;;;;34.12;27.12;98978.97;5091809;28;20236;-83
2022/06/22 12:29:25;;;;;;;2.25;1.90;;;;;;;33.98;26.81;98971.38;5085334;28;20246;-81
2022/06/22 12:32:12;;;;;;;2.30;1.98;;;;;;;34.29;26.75;98967.16;5086959;28;20303;-82
2022/06/22 12:35:17;;;;;;;4.28;1.98;;;;;;;34.38;27.15;98973.13;5056701;28;20243;-83
2022/06/22 12:37:48;;;;;;;2.60;1.90;;;;;;;33.98;27.33;98965.81;5090962;28;20237;-83
2022/06/22 12:40:25;;;;;;;1.98;1.83;;;;;;;34.03;27.49;98968.22;5041053;28;20248;-83
2022/06/22 12:43:09;;;;;;;1.88;1.77;;;;;;;33.95;27.69;98972.19;5070971;28;20698;-83
2022/06/22 12:46:01;;;;;;;3.80;1.85;;;;;;;33.94;28.19;98964.22;5073549;28;20301;-83
2022/06/22 12:48:56;;;;;;;2.55;1.83;;;;;;;33.94;27.68;98969.78;5069882;28;20251;-83